Milton, FL

5:52 AM CDT on September 21, 2014 (GMT -0500)
Milton, FL | Change Station
CLOSE
Current Station
Personal Weather Station
Location: Milton, FL
Elevation: 170 ft
Nearby Weather Stations

Elev 170 ft 30.65 °N, 87.06 °W | Updated 14 minutes ago

Overcast
Overcast
68.3 °F
Feels Like 68.3 °F
N
0.0
Wind Variable Wind from SSW
Gusts 0.0 mph

Today
High -- | Low -- °F
--% Chance of Precip.
Yesterday
High -- | Low -- °F
Precip. -- in
6:35 AM 6:45 PM
Waning Crescent, 7% visible
Pressure 29.96 in
Visibility 10.0 miles
Clouds Overcast 6000 ft
Dew Point 67 °F
Humidity 95%
Rainfall 0.00 in
Snow Depth Not available.
UV 0 out of 12
Pollen 9.20 out of 12
Ozone Good
PM2.5 Good
Flu Activity Not available.
METAR KNDZ 210956Z AUTO 06005KT 10SM OVC060 22/19 A3000 RMK AO2 SLP144 T02170189 $

More Conditions Fewer Conditions

Pressure 29.96 in
Visibility 10.0 miles
Clouds Overcast 6000 ft
Dew Point 67 °F
Humidity 95%
Rainfall 0.00 in
Snow Depth Not available.
UV 0 out of 12
Pollen 9.20 out of 12
Ozone Good
PM2.5 Good
Flu Activity Not available.
METAR KNDZ 210956Z AUTO 06005KT 10SM OVC060 22/19 A3000 RMK AO2 SLP144 T02170189 $

More Conditions Fewer Conditions

10-Day Weather Forecast

Almanac

Astronomy

Sep. 21, 2014 Rise Set
Actual Time 6:35 AM CDT 6:45 PM CDT
Civil Twilight 6:11 AM CDT 7:09 PM CDT
Nautical Twilight 5:43 AM CDT 7:37 PM CDT
Astronomical Twilight 5:15 AM CDT 8:06 PM CDT
Moon 4:16 AM CDT 5:15 PM CDT
Length of Visible Light 12h 58m
Length of Day
12h 10m
Tomorrow will be 1m 51s shorter.
Waning Crescent, 7% of the Moon is Illuminated
Today
Waning Crescent
Sep 24
New
Oct 1
First Quarter
Oct 8
Full
Oct 15
Last Quarter

Today's Extremes

State Highs State Lows

Community

WunderPhotos

Upload Photos

1,755,108 photos uploaded!

Nearby

Air Quality

  Air Quality AQ Index Pollutant
Yesterday Good
PM2.5
Yesterday Good
OZONE
Current Good
PM2.5
Current Good
OZONE
Sunday Moderate
OZONE

Snow Depth

Station Depth Elevation
No new snow has been reported.

Earthquake Activity

City Distance Mag. Time & Date
No recent earthquake activity has been reported nearby.
Minimum magnitude displayed is 2.5.

Coastal Water Temperatures

Place Temperature
No Stations Reporting

Nearby Weather Stations